Nizwa, Oman
Current Conditions -  °F | °C
As of 1:50 PM on Tuesday 21 Oct 2014 (Local Time) from EQMN Reporting Station
Few Clouds Few Clouds  
Wind Chill: 93°   Ceiling: Unl
Heat Index: 94°   Visibility: 6mi
Dew Point: 63°   Wind: 10mph
Humidity: 36%   Direction: 50°NE
Pressure: 29.88"   Gusts: NA
Location:  22.92°N, 57.53°E
Report Text: EQMN 210950Z 05009KT 9999 FEW050TCU 34/17 Q1012 BLU NOSIG
Loading
Personal Weather Stations






























Interactive Weather Map
Tropical Storm Tracking
New forecast layout! Learn more

10-Day Weather Forecast

Advertisements
Track Severe Weather on mobile